HALF-HOURLY OBSERVATIONS INDEX

038

Channel Country

BIRDSVILLE AIRPORT

Site: 038026
Alt: 46.6m
0.0km WNW of BIRDSVILLE


  Time     Wind        Temp  DP   Baro     Rain since   Rain past  Vis(m), Cloud(base in m), Weather
  local        km/h                         9am  last   hr   10m    
Mon 10:00  ESE 11/ 15  32.8 11.9  1012.6    0.0   0.0   0.0   0.0   10000 
Mon 10:30  SSE 11/ 13  34.1 12.4  1012.3    0.0   0.0   0.0   0.0   10000 
Mon 11:00  ESE  9/ 13  35.5  9.8  1012.1    0.0   0.0   0.0   0.0   10000 
Mon 11:30   SE 11/ 15  36.2  8.1  1011.8    0.0   0.0   0.0   0.0   10000 
Mon 12:00  ENE  2/ 15  36.3  9.0  1011.5    0.0   0.0   0.0   0.0   10000 
Mon 12:30    C  0/  0  37.0  9.6  1011.1    0.0   0.0   0.0   0.0   10000 
Mon 13:00    C  0/  0  37.6 10.8  1010.6    0.0   0.0   0.0   0.0   10000 
Mon 13:30    C  0/  0  38.0 11.1  1010.3    0.0   0.0   0.0   0.0   10000 
Mon 14:00    C  0/  0  38.1 10.5  1009.8    0.0   0.0   0.0   0.0   10000 
Mon 14:30    C  0/  0  38.6 10.9  1009.5    0.0   0.0   0.0   0.0   10000 
Mon 15:00    C  0/  0  38.3 12.8  1009.2    0.0   0.0   0.0   0.0   10000 
Mon 15:30    C  0/  0  38.6 10.0  1008.9    0.0   0.0   0.0   0.0   10000 

WINDORAH AIRPORT

Site: 038076
Alt: 132.2m
2km NNE of WINDORAH


  Time     Wind        Temp  DP   Baro     Rain since   Rain past  Vis(m), Cloud(base in m), Weather
  local        km/h                         9am  last   hr   10m    
Mon 10:00  NNE  6/ 11  33.7 20.1  1013.1    0.0   0.0   0.0   0.0   10000 
Mon 10:30    E  7/ 11  34.5 19.3  1012.7    0.0   0.0   0.0   0.0   10000 
Mon 11:00    S  9/ 15  34.8 20.4  1012.3    0.0   0.0   0.0   0.0   10000 
Mon 11:30  ESE 13/ 22  35.0 18.6  1012.1    0.0   0.0   0.0   0.0   10000 
Mon 12:00   NE 13/ 20  35.8 18.8  1011.7    0.0   0.0   0.0   0.0   10000 
Mon 12:30   SE 19/ 26  36.7 18.3  1011.3    0.0   0.0   0.0   0.0   10000|SC2160 
Mon 13:00  ENE  9/ 11  36.3 17.4  1010.9    0.0   0.0   0.0   0.0   10000|SC2220 BR2670 
Mon 13:30    E 17/ 24  36.5 17.1  1010.5    0.0   0.0   0.0   0.0   10000|BR2340 BR2820 
Mon 14:00    E 13/ 22  37.4 15.8  1010.0    0.0   0.0   0.0   0.0   10000|BR3000 
Mon 14:30    E 19/ 30  38.2 16.5  1009.5    0.0   0.0   0.0   0.0   10000|SC2580 
Mon 15:00   SE 19/ 26  37.4 16.4  1009.0    0.0   0.0   0.0   0.0   10000|SC2670 
Mon 15:30  ESE 17/ 30  38.4 16.1  1008.6    0.0   0.0   0.0   0.0   10000